sensor_id;sensor_type;location;lat;lon;timestamp;temperature;humidity
27619;DHT22;15039;50.830;4.730;2023-01-20T00:00:29;2.30;99.90
27619;DHT22;15039;50.830;4.730;2023-01-20T00:02:56;2.30;99.90
27619;DHT22;15039;50.830;4.730;2023-01-20T00:05:22;2.20;99.90
27619;DHT22;15039;50.830;4.730;2023-01-20T00:07:47;2.20;99.90
27619;DHT22;15039;50.830;4.730;2023-01-20T00:10:13;2.20;99.90
27619;DHT22;15039;50.830;4.730;2023-01-20T00:12:38;2.20;99.90
27619;DHT22;15039;50.830;4.730;2023-01-20T00:15:05;2.10;99.90
27619;DHT22;15039;50.830;4.730;2023-01-20T00:17:31;2.10;99.90
27619;DHT22;15039;50.830;4.730;2023-01-20T00:19:56;2.00;99.90
27619;DHT22;15039;50.830;4.730;2023-01-20T00:22:22;2.10;99.90
27619;DHT22;15039;50.830;4.730;2023-01-20T00:24:48;2.10;99.90
27619;DHT22;15039;50.830;4.730;2023-01-20T00:27:14;2.10;99.90
27619;DHT22;15039;50.830;4.730;2023-01-20T00:29:40;2.20;99.90
27619;DHT22;15039;50.830;4.730;2023-01-20T00:32:11;2.10;99.90
27619;DHT22;15039;50.830;4.730;2023-01-20T00:34:37;2.10;99.90
27619;DHT22;15039;50.830;4.730;2023-01-20T00:37:03;2.20;99.90
27619;DHT22;15039;50.830;4.730;2023-01-20T00:39:29;2.20;99.90
27619;DHT22;15039;50.830;4.730;2023-01-20T00:41:54;2.20;99.90
27619;DHT22;15039;50.830;4.730;2023-01-20T00:46:47;2.10;99.90
27619;DHT22;15039;50.830;4.730;2023-01-20T00:49:12;2.00;99.90
27619;DHT22;15039;50.830;4.730;2023-01-20T00:51:38;2.00;99.90
27619;DHT22;15039;50.830;4.730;2023-01-20T00:54:03;2.00;99.90
27619;DHT22;15039;50.830;4.730;2023-01-20T00:56:29;2.00;99.90
27619;DHT22;15039;50.830;4.730;2023-01-20T00:58:55;2.10;99.90
27619;DHT22;15039;50.830;4.730;2023-01-20T01:01:21;2.10;99.90
27619;DHT22;15039;50.830;4.730;2023-01-20T01:03:47;2.20;99.90
27619;DHT22;15039;50.830;4.730;2023-01-20T01:06:15;2.20;99.90
27619;DHT22;15039;50.830;4.730;2023-01-20T01:08:42;2.30;99.90
27619;DHT22;15039;50.830;4.730;2023-01-20T01:11:09;2.20;99.90
27619;DHT22;15039;50.830;4.730;2023-01-20T01:13:35;2.20;99.90
27619;DHT22;15039;50.830;4.730;2023-01-20T01:16:03;2.30;99.90
27619;DHT22;15039;50.830;4.730;2023-01-20T01:18:29;2.20;99.90
27619;DHT22;15039;50.830;4.730;2023-01-20T01:20:56;2.30;99.90
27619;DHT22;15039;50.830;4.730;2023-01-20T01:23:22;2.20;99.90
27619;DHT22;15039;50.830;4.730;2023-01-20T01:25:47;2.20;99.90
27619;DHT22;15039;50.830;4.730;2023-01-20T01:28:13;2.20;99.90
27619;DHT22;15039;50.830;4.730;2023-01-20T01:30:39;2.20;99.90
27619;DHT22;15039;50.830;4.730;2023-01-20T01:33:04;2.20;99.90
27619;DHT22;15039;50.830;4.730;2023-01-20T01:35:30;2.20;99.90
27619;DHT22;15039;50.830;4.730;2023-01-20T01:37:55;2.20;99.90
27619;DHT22;15039;50.830;4.730;2023-01-20T01:40:21;2.20;99.90
27619;DHT22;15039;50.830;4.730;2023-01-20T01:42:47;2.20;99.90
27619;DHT22;15039;50.830;4.730;2023-01-20T01:47:58;2.20;99.90
27619;DHT22;15039;50.830;4.730;2023-01-20T01:53:03;2.20;99.90
27619;DHT22;15039;50.830;4.730;2023-01-20T01:55:33;2.20;99.90
27619;DHT22;15039;50.830;4.730;2023-01-20T01:58:01;2.30;99.90
27619;DHT22;15039;50.830;4.730;2023-01-20T02:00:27;2.20;99.90
27619;DHT22;15039;50.830;4.730;2023-01-20T02:02:53;2.20;99.90
27619;DHT22;15039;50.830;4.730;2023-01-20T02:05:21;2.30;99.90
27619;DHT22;15039;50.830;4.730;2023-01-20T02:07:48;2.30;99.90
27619;DHT22;15039;50.830;4.730;2023-01-20T02:10:14;2.10;99.90
27619;DHT22;15039;50.830;4.730;2023-01-20T02:12:41;2.00;99.90
27619;DHT22;15039;50.830;4.730;2023-01-20T02:15:09;1.90;99.90
27619;DHT22;15039;50.830;4.730;2023-01-20T02:17:42;1.90;99.90
27619;DHT22;15039;50.830;4.730;2023-01-20T02:28:42;1.60;99.90
27619;DHT22;15039;50.830;4.730;2023-01-20T02:37:18;1.70;99.90
27619;DHT22;15039;50.830;4.730;2023-01-20T02:39:57;1.60;99.90
27619;DHT22;15039;50.830;4.730;2023-01-20T02:42:38;1.60;99.90
27619;DHT22;15039;50.830;4.730;2023-01-20T02:45:13;1.60;99.90
27619;DHT22;15039;50.830;4.730;2023-01-20T02:52:38;1.70;99.90
27619;DHT22;15039;50.830;4.730;2023-01-20T02:55:10;1.70;99.90
27619;DHT22;15039;50.830;4.730;2023-01-20T02:57:50;1.70;99.90
27619;DHT22;15039;50.830;4.730;2023-01-20T03:00:25;1.70;99.90
27619;DHT22;15039;50.830;4.730;2023-01-20T03:02:54;1.60;99.90
27619;DHT22;15039;50.830;4.730;2023-01-20T03:05:31;1.60;99.90
27619;DHT22;15039;50.830;4.730;2023-01-20T03:08:00;1.60;99.90
27619;DHT22;15039;50.830;4.730;2023-01-20T03:10:27;1.60;99.90
27619;DHT22;15039;50.830;4.730;2023-01-20T03:12:57;1.60;99.90
27619;DHT22;15039;50.830;4.730;2023-01-20T03:15:34;1.70;99.90
27619;DHT22;15039;50.830;4.730;2023-01-20T03:18:01;1.70;99.90
27619;DHT22;15039;50.830;4.730;2023-01-20T03:20:26;1.70;99.90
27619;DHT22;15039;50.830;4.730;2023-01-20T03:22:52;1.80;99.90
27619;DHT22;15039;50.830;4.730;2023-01-20T03:25:19;1.80;99.90
27619;DHT22;15039;50.830;4.730;2023-01-20T03:27:45;1.90;99.90
27619;DHT22;15039;50.830;4.730;2023-01-20T03:30:15;2.00;99.90
27619;DHT22;15039;50.830;4.730;2023-01-20T03:32:43;2.00;99.90
27619;DHT22;15039;50.830;4.730;2023-01-20T03:35:12;2.00;99.90
27619;DHT22;15039;50.830;4.730;2023-01-20T03:37:38;2.00;99.90
27619;DHT22;15039;50.830;4.730;2023-01-20T03:40:04;2.10;99.90
27619;DHT22;15039;50.830;4.730;2023-01-20T03:42:34;2.00;99.90
27619;DHT22;15039;50.830;4.730;2023-01-20T03:45:20;1.90;99.90
27619;DHT22;15039;50.830;4.730;2023-01-20T03:55:47;2.00;99.90
27619;DHT22;15039;50.830;4.730;2023-01-20T03:58:20;1.90;99.90
27619;DHT22;15039;50.830;4.730;2023-01-20T04:00:48;1.90;99.90
27619;DHT22;15039;50.830;4.730;2023-01-20T04:03:20;1.90;99.90
27619;DHT22;15039;50.830;4.730;2023-01-20T04:05:49;1.90;99.90
27619;DHT22;15039;50.830;4.730;2023-01-20T04:08:16;2.00;99.90
27619;DHT22;15039;50.830;4.730;2023-01-20T04:10:46;1.90;99.90
27619;DHT22;15039;50.830;4.730;2023-01-20T04:13:12;1.90;99.90
27619;DHT22;15039;50.830;4.730;2023-01-20T04:15:41;2.00;99.90
27619;DHT22;15039;50.830;4.730;2023-01-20T04:18:13;2.00;99.90
27619;DHT22;15039;50.830;4.730;2023-01-20T04:20:40;2.00;99.90
27619;DHT22;15039;50.830;4.730;2023-01-20T04:23:07;1.90;99.90
27619;DHT22;15039;50.830;4.730;2023-01-20T04:25:36;1.80;99.90
27619;DHT22;15039;50.830;4.730;2023-01-20T04:28:02;1.70;99.90
27619;DHT22;15039;50.830;4.730;2023-01-20T04:30:28;1.70;99.90
27619;DHT22;15039;50.830;4.730;2023-01-20T04:32:53;1.70;99.90
27619;DHT22;15039;50.830;4.730;2023-01-20T04:35:19;1.70;99.90
27619;DHT22;15039;50.830;4.730;2023-01-20T04:37:45;1.60;99.90
27619;DHT22;15039;50.830;4.730;2023-01-20T04:40:11;1.60;99.90
27619;DHT22;15039;50.830;4.730;2023-01-20T04:42:36;1.60;99.90
27619;DHT22;15039;50.830;4.730;2023-01-20T04:45:03;1.50;99.90
27619;DHT22;15039;50.830;4.730;2023-01-20T04:47:32;1.50;99.90
27619;DHT22;15039;50.830;4.730;2023-01-20T04:49:58;1.40;99.90
27619;DHT22;15039;50.830;4.730;2023-01-20T04:52:24;1.30;99.90
27619;DHT22;15039;50.830;4.730;2023-01-20T04:54:49;1.30;99.90
27619;DHT22;15039;50.830;4.730;2023-01-20T04:57:15;1.30;99.90
27619;DHT22;15039;50.830;4.730;2023-01-20T04:59:41;1.30;99.90
27619;DHT22;15039;50.830;4.730;2023-01-20T05:02:07;1.30;99.90
27619;DHT22;15039;50.830;4.730;2023-01-20T05:04:32;1.30;99.90
27619;DHT22;15039;50.830;4.730;2023-01-20T05:06:58;1.40;99.90
27619;DHT22;15039;50.830;4.730;2023-01-20T05:09:23;1.40;99.90
27619;DHT22;15039;50.830;4.730;2023-01-20T05:11:49;1.40;99.90
27619;DHT22;15039;50.830;4.730;2023-01-20T05:14:15;1.40;99.90
27619;DHT22;15039;50.830;4.730;2023-01-20T05:16:40;1.40;99.90
27619;DHT22;15039;50.830;4.730;2023-01-20T05:19:07;1.40;99.90
27619;DHT22;15039;50.830;4.730;2023-01-20T05:21:32;1.50;99.90
27619;DHT22;15039;50.830;4.730;2023-01-20T05:23:58;1.50;99.90
27619;DHT22;15039;50.830;4.730;2023-01-20T05:26:24;1.50;99.90
27619;DHT22;15039;50.830;4.730;2023-01-20T05:28:51;1.60;99.90
27619;DHT22;15039;50.830;4.730;2023-01-20T05:31:16;1.50;99.90
27619;DHT22;15039;50.830;4.730;2023-01-20T05:33:42;1.50;99.90
27619;DHT22;15039;50.830;4.730;2023-01-20T05:36:09;1.50;99.90
27619;DHT22;15039;50.830;4.730;2023-01-20T05:38:36;1.40;99.90
27619;DHT22;15039;50.830;4.730;2023-01-20T05:41:04;1.40;99.90
27619;DHT22;15039;50.830;4.730;2023-01-20T05:43:30;1.40;99.90
27619;DHT22;15039;50.830;4.730;2023-01-20T05:45:56;1.40;99.90
27619;DHT22;15039;50.830;4.730;2023-01-20T05:48:22;1.40;99.90
27619;DHT22;15039;50.830;4.730;2023-01-20T05:50:48;1.30;99.90
27619;DHT22;15039;50.830;4.730;2023-01-20T05:53:14;1.30;99.90
27619;DHT22;15039;50.830;4.730;2023-01-20T05:55:40;1.30;99.90
27619;DHT22;15039;50.830;4.730;2023-01-20T05:58:06;1.30;99.90
27619;DHT22;15039;50.830;4.730;2023-01-20T06:00:32;1.30;99.90
27619;DHT22;15039;50.830;4.730;2023-01-20T06:02:58;1.30;99.90
27619;DHT22;15039;50.830;4.730;2023-01-20T06:05:24;1.30;99.90
27619;DHT22;15039;50.830;4.730;2023-01-20T06:07:50;1.30;99.90
27619;DHT22;15039;50.830;4.730;2023-01-20T06:10:16;1.40;99.90
27619;DHT22;15039;50.830;4.730;2023-01-20T06:12:42;1.40;99.90
27619;DHT22;15039;50.830;4.730;2023-01-20T06:15:09;1.50;99.90
27619;DHT22;15039;50.830;4.730;2023-01-20T06:17:34;1.40;99.90
27619;DHT22;15039;50.830;4.730;2023-01-20T06:20:00;1.50;99.90
27619;DHT22;15039;50.830;4.730;2023-01-20T06:22:26;1.50;99.90
27619;DHT22;15039;50.830;4.730;2023-01-20T06:24:52;1.50;99.90
27619;DHT22;15039;50.830;4.730;2023-01-20T06:27:18;1.50;99.90
27619;DHT22;15039;50.830;4.730;2023-01-20T06:29:44;1.60;99.90
27619;DHT22;15039;50.830;4.730;2023-01-20T06:32:10;1.70;99.90
27619;DHT22;15039;50.830;4.730;2023-01-20T06:34:35;1.70;99.90
27619;DHT22;15039;50.830;4.730;2023-01-20T06:37:01;1.70;99.90
27619;DHT22;15039;50.830;4.730;2023-01-20T06:39:28;1.70;99.90
27619;DHT22;15039;50.830;4.730;2023-01-20T06:41:57;1.70;99.90
27619;DHT22;15039;50.830;4.730;2023-01-20T06:44:23;1.80;99.90
27619;DHT22;15039;50.830;4.730;2023-01-20T06:46:49;1.80;99.90
27619;DHT22;15039;50.830;4.730;2023-01-20T06:49:16;1.70;99.90
27619;DHT22;15039;50.830;4.730;2023-01-20T06:51:41;1.70;99.90
27619;DHT22;15039;50.830;4.730;2023-01-20T06:54:07;1.70;99.90
27619;DHT22;15039;50.830;4.730;2023-01-20T06:56:33;1.70;99.90
27619;DHT22;15039;50.830;4.730;2023-01-20T06:58:58;1.70;99.90
27619;DHT22;15039;50.830;4.730;2023-01-20T07:01:27;1.70;99.90
27619;DHT22;15039;50.830;4.730;2023-01-20T07:03:53;1.70;99.90
27619;DHT22;15039;50.830;4.730;2023-01-20T07:06:28;1.80;99.90
27619;DHT22;15039;50.830;4.730;2023-01-20T07:08:55;1.80;99.90
27619;DHT22;15039;50.830;4.730;2023-01-20T07:11:21;1.80;99.90
27619;DHT22;15039;50.830;4.730;2023-01-20T07:13:46;1.80;99.90
27619;DHT22;15039;50.830;4.730;2023-01-20T07:16:12;1.80;99.90
27619;DHT22;15039;50.830;4.730;2023-01-20T07:18:38;1.80;99.90
27619;DHT22;15039;50.830;4.730;2023-01-20T07:21:04;1.70;99.90
27619;DHT22;15039;50.830;4.730;2023-01-20T07:23:30;1.80;99.90
27619;DHT22;15039;50.830;4.730;2023-01-20T07:26:03;1.80;99.90
27619;DHT22;15039;50.830;4.730;2023-01-20T07:28:30;1.80;99.90
27619;DHT22;15039;50.830;4.730;2023-01-20T07:31:01;1.80;99.90
27619;DHT22;15039;50.830;4.730;2023-01-20T07:33:26;1.80;99.90
27619;DHT22;15039;50.830;4.730;2023-01-20T07:35:52;1.90;99.90
27619;DHT22;15039;50.830;4.730;2023-01-20T07:38:19;1.90;99.90
27619;DHT22;15039;50.830;4.730;2023-01-20T07:40:44;1.90;99.90
27619;DHT22;15039;50.830;4.730;2023-01-20T07:43:10;1.90;99.90
27619;DHT22;15039;50.830;4.730;2023-01-20T07:45:36;1.90;99.90
27619;DHT22;15039;50.830;4.730;2023-01-20T07:48:01;1.90;99.90
27619;DHT22;15039;50.830;4.730;2023-01-20T07:50:28;1.90;99.90
27619;DHT22;15039;50.830;4.730;2023-01-20T07:52:54;2.00;99.90
27619;DHT22;15039;50.830;4.730;2023-01-20T07:55:20;2.00;99.90
27619;DHT22;15039;50.830;4.730;2023-01-20T07:57:46;2.00;99.90
27619;DHT22;15039;50.830;4.730;2023-01-20T08:00:11;2.00;99.90
27619;DHT22;15039;50.830;4.730;2023-01-20T08:02:37;1.90;99.90
27619;DHT22;15039;50.830;4.730;2023-01-20T08:05:04;1.90;99.90
27619;DHT22;15039;50.830;4.730;2023-01-20T08:07:30;1.90;99.90
27619;DHT22;15039;50.830;4.730;2023-01-20T08:09:56;1.90;99.90
27619;DHT22;15039;50.830;4.730;2023-01-20T08:12:22;2.00;99.90
27619;DHT22;15039;50.830;4.730;2023-01-20T08:14:48;1.90;99.90
27619;DHT22;15039;50.830;4.730;2023-01-20T08:17:13;1.90;99.90
27619;DHT22;15039;50.830;4.730;2023-01-20T08:19:39;1.80;99.90
27619;DHT22;15039;50.830;4.730;2023-01-20T08:22:05;1.80;99.90
27619;DHT22;15039;50.830;4.730;2023-01-20T08:24:30;1.80;99.90
27619;DHT22;15039;50.830;4.730;2023-01-20T08:26:56;1.80;99.90
27619;DHT22;15039;50.830;4.730;2023-01-20T08:29:22;1.80;99.90
27619;DHT22;15039;50.830;4.730;2023-01-20T08:31:47;1.80;99.90
27619;DHT22;15039;50.830;4.730;2023-01-20T08:34:13;1.90;99.90
27619;DHT22;15039;50.830;4.730;2023-01-20T08:36:40;1.80;99.90
27619;DHT22;15039;50.830;4.730;2023-01-20T08:39:07;1.90;99.90
27619;DHT22;15039;50.830;4.730;2023-01-20T08:41:35;1.90;99.90
27619;DHT22;15039;50.830;4.730;2023-01-20T08:44:02;1.90;99.90
27619;DHT22;15039;50.830;4.730;2023-01-20T08:46:29;1.90;99.90
27619;DHT22;15039;50.830;4.730;2023-01-20T08:48:55;1.90;99.90
27619;DHT22;15039;50.830;4.730;2023-01-20T08:51:27;1.90;99.90
27619;DHT22;15039;50.830;4.730;2023-01-20T08:53:53;1.90;99.90
27619;DHT22;15039;50.830;4.730;2023-01-20T08:56:19;1.90;99.90
27619;DHT22;15039;50.830;4.730;2023-01-20T08:58:44;2.00;99.90
27619;DHT22;15039;50.830;4.730;2023-01-20T09:01:16;2.00;99.90
27619;DHT22;15039;50.830;4.730;2023-01-20T09:03:44;2.00;99.90
27619;DHT22;15039;50.830;4.730;2023-01-20T09:06:11;2.00;99.90
27619;DHT22;15039;50.830;4.730;2023-01-20T09:08:37;1.90;99.90
27619;DHT22;15039;50.830;4.730;2023-01-20T09:11:07;1.90;99.90
27619;DHT22;15039;50.830;4.730;2023-01-20T09:13:33;1.90;99.90
27619;DHT22;15039;50.830;4.730;2023-01-20T09:15:59;2.00;99.90
27619;DHT22;15039;50.830;4.730;2023-01-20T09:18:25;1.90;99.90
27619;DHT22;15039;50.830;4.730;2023-01-20T09:20:51;1.90;99.90
27619;DHT22;15039;50.830;4.730;2023-01-20T09:23:16;2.00;99.90
27619;DHT22;15039;50.830;4.730;2023-01-20T09:25:42;2.10;99.90
27619;DHT22;15039;50.830;4.730;2023-01-20T09:28:08;2.10;99.90
27619;DHT22;15039;50.830;4.730;2023-01-20T09:30:33;2.10;99.90
27619;DHT22;15039;50.830;4.730;2023-01-20T09:32:59;2.10;99.90
27619;DHT22;15039;50.830;4.730;2023-01-20T09:35:25;2.10;99.90
27619;DHT22;15039;50.830;4.730;2023-01-20T09:37:51;2.20;99.90
27619;DHT22;15039;50.830;4.730;2023-01-20T09:40:47;2.20;99.90
27619;DHT22;15039;50.830;4.730;2023-01-20T09:43:56;2.30;99.90
27619;DHT22;15039;50.830;4.730;2023-01-20T09:52:52;2.50;99.90
27619;DHT22;15039;50.830;4.730;2023-01-20T09:55:49;2.50;99.90
27619;DHT22;15039;50.830;4.730;2023-01-20T10:03:36;2.70;99.90
27619;DHT22;15039;50.830;4.730;2023-01-20T10:06:12;2.80;99.90
27619;DHT22;15039;50.830;4.730;2023-01-20T10:09:02;2.80;99.90
27619;DHT22;15039;50.830;4.730;2023-01-20T10:11:30;2.80;99.90
27619;DHT22;15039;50.830;4.730;2023-01-20T10:19:07;2.70;99.90
27619;DHT22;15039;50.830;4.730;2023-01-20T10:21:44;2.70;99.90
27619;DHT22;15039;50.830;4.730;2023-01-20T10:24:17;2.80;99.90
27619;DHT22;15039;50.830;4.730;2023-01-20T10:26:55;2.80;99.90
27619;DHT22;15039;50.830;4.730;2023-01-20T10:29:48;3.00;99.90
27619;DHT22;15039;50.830;4.730;2023-01-20T10:32:43;3.00;99.90
27619;DHT22;15039;50.830;4.730;2023-01-20T10:35:28;3.10;99.90
27619;DHT22;15039;50.830;4.730;2023-01-20T10:37:55;3.10;99.90
27619;DHT22;15039;50.830;4.730;2023-01-20T10:43:00;3.10;99.90
27619;DHT22;15039;50.830;4.730;2023-01-20T10:46:00;3.20;99.90
27619;DHT22;15039;50.830;4.730;2023-01-20T10:57:15;3.20;99.90
27619;DHT22;15039;50.830;4.730;2023-01-20T10:59:50;3.20;99.90
27619;DHT22;15039;50.830;4.730;2023-01-20T11:05:01;3.30;99.90
27619;DHT22;15039;50.830;4.730;2023-01-20T11:07:28;3.40;99.90
27619;DHT22;15039;50.830;4.730;2023-01-20T11:09:56;3.40;99.90
27619;DHT22;15039;50.830;4.730;2023-01-20T11:12:27;3.50;99.90
27619;DHT22;15039;50.830;4.730;2023-01-20T11:14:54;3.60;99.90
27619;DHT22;15039;50.830;4.730;2023-01-20T11:17:20;3.70;99.90
27619;DHT22;15039;50.830;4.730;2023-01-20T11:19:49;3.70;99.90
27619;DHT22;15039;50.830;4.730;2023-01-20T11:22:26;3.80;99.90
27619;DHT22;15039;50.830;4.730;2023-01-20T11:24:54;3.80;99.90
27619;DHT22;15039;50.830;4.730;2023-01-20T11:27:22;4.00;99.90
27619;DHT22;15039;50.830;4.730;2023-01-20T11:29:54;4.10;99.90
27619;DHT22;15039;50.830;4.730;2023-01-20T11:34:53;4.20;99.90
27619;DHT22;15039;50.830;4.730;2023-01-20T11:37:40;4.30;99.90
27619;DHT22;15039;50.830;4.730;2023-01-20T11:40:21;4.30;99.90
27619;DHT22;15039;50.830;4.730;2023-01-20T11:42:49;4.30;99.90
27619;DHT22;15039;50.830;4.730;2023-01-20T11:45:35;4.40;99.90
27619;DHT22;15039;50.830;4.730;2023-01-20T11:53:16;4.60;99.90
27619;DHT22;15039;50.830;4.730;2023-01-20T11:58:24;4.50;99.90
27619;DHT22;15039;50.830;4.730;2023-01-20T12:00:58;4.60;99.90
27619;DHT22;15039;50.830;4.730;2023-01-20T12:06:31;4.50;99.90
27619;DHT22;15039;50.830;4.730;2023-01-20T12:09:11;4.50;99.90
27619;DHT22;15039;50.830;4.730;2023-01-20T12:11:49;4.50;99.90
27619;DHT22;15039;50.830;4.730;2023-01-20T12:19:56;4.60;99.90
27619;DHT22;15039;50.830;4.730;2023-01-20T12:22:33;4.60;99.90
27619;DHT22;15039;50.830;4.730;2023-01-20T12:25:15;4.60;99.90
27619;DHT22;15039;50.830;4.730;2023-01-20T12:30:45;4.80;99.90
27619;DHT22;15039;50.830;4.730;2023-01-20T12:33:31;4.80;99.90
27619;DHT22;15039;50.830;4.730;2023-01-20T12:41:21;4.70;99.90
27619;DHT22;15039;50.830;4.730;2023-01-20T12:44:02;4.60;99.90
27619;DHT22;15039;50.830;4.730;2023-01-20T12:47:03;4.60;99.90
27619;DHT22;15039;50.830;4.730;2023-01-20T12:49:39;4.50;99.90
27619;DHT22;15039;50.830;4.730;2023-01-20T12:52:29;4.50;99.90
27619;DHT22;15039;50.830;4.730;2023-01-20T13:15:21;4.60;99.90
27619;DHT22;15039;50.830;4.730;2023-01-20T13:20:43;4.50;99.90
27619;DHT22;15039;50.830;4.730;2023-01-20T13:23:16;4.50;99.90
27619;DHT22;15039;50.830;4.730;2023-01-20T13:25:44;4.60;99.90
27619;DHT22;15039;50.830;4.730;2023-01-20T13:28:19;4.60;99.90
27619;DHT22;15039;50.830;4.730;2023-01-20T13:30:47;4.60;99.90
27619;DHT22;15039;50.830;4.730;2023-01-20T13:33:36;4.70;99.90
27619;DHT22;15039;50.830;4.730;2023-01-20T13:36:18;4.80;99.90
27619;DHT22;15039;50.830;4.730;2023-01-20T13:38:46;4.90;99.90
27619;DHT22;15039;50.830;4.730;2023-01-20T13:41:48;5.00;99.90
27619;DHT22;15039;50.830;4.730;2023-01-20T13:44:38;5.20;99.90
27619;DHT22;15039;50.830;4.730;2023-01-20T13:47:08;5.20;99.90
27619;DHT22;15039;50.830;4.730;2023-01-20T13:52:06;5.40;99.90
27619;DHT22;15039;50.830;4.730;2023-01-20T13:59:44;5.30;99.90
27619;DHT22;15039;50.830;4.730;2023-01-20T14:02:18;5.20;99.90
27619;DHT22;15039;50.830;4.730;2023-01-20T14:04:44;5.10;99.90
27619;DHT22;15039;50.830;4.730;2023-01-20T14:07:24;5.30;99.90
27619;DHT22;15039;50.830;4.730;2023-01-20T14:09:51;5.20;99.90
27619;DHT22;15039;50.830;4.730;2023-01-20T14:12:17;5.20;99.90
27619;DHT22;15039;50.830;4.730;2023-01-20T14:14:43;5.30;99.90
27619;DHT22;15039;50.830;4.730;2023-01-20T14:17:19;5.40;99.90
27619;DHT22;15039;50.830;4.730;2023-01-20T14:19:52;5.60;99.90
27619;DHT22;15039;50.830;4.730;2023-01-20T14:22:29;5.90;99.90
27619;DHT22;15039;50.830;4.730;2023-01-20T14:24:57;6.00;99.90
27619;DHT22;15039;50.830;4.730;2023-01-20T14:27:32;6.20;99.90
27619;DHT22;15039;50.830;4.730;2023-01-20T14:32:45;6.10;99.90
27619;DHT22;15039;50.830;4.730;2023-01-20T14:35:25;6.00;99.90
27619;DHT22;15039;50.830;4.730;2023-01-20T14:37:53;6.00;99.90
27619;DHT22;15039;50.830;4.730;2023-01-20T14:40:27;5.80;99.90
27619;DHT22;15039;50.830;4.730;2023-01-20T14:43:16;5.70;99.90
27619;DHT22;15039;50.830;4.730;2023-01-20T14:45:46;5.50;99.90
27619;DHT22;15039;50.830;4.730;2023-01-20T14:48:13;5.40;99.90
27619;DHT22;15039;50.830;4.730;2023-01-20T14:50:39;5.30;99.90
27619;DHT22;15039;50.830;4.730;2023-01-20T14:53:05;5.20;99.90
27619;DHT22;15039;50.830;4.730;2023-01-20T14:55:35;5.20;99.90
27619;DHT22;15039;50.830;4.730;2023-01-20T14:58:17;5.20;99.90
27619;DHT22;15039;50.830;4.730;2023-01-20T15:00:45;5.10;99.90
27619;DHT22;15039;50.830;4.730;2023-01-20T15:05:58;5.00;99.90
27619;DHT22;15039;50.830;4.730;2023-01-20T15:08:24;5.10;99.90
27619;DHT22;15039;50.830;4.730;2023-01-20T15:16:39;5.20;99.90
27619;DHT22;15039;50.830;4.730;2023-01-20T15:21:51;5.40;99.90
27619;DHT22;15039;50.830;4.730;2023-01-20T15:26:47;5.60;99.90
27619;DHT22;15039;50.830;4.730;2023-01-20T15:29:25;5.70;99.90
27619;DHT22;15039;50.830;4.730;2023-01-20T15:31:52;5.70;99.90
27619;DHT22;15039;50.830;4.730;2023-01-20T15:34:19;5.60;99.90
27619;DHT22;15039;50.830;4.730;2023-01-20T15:36:46;5.70;99.90
27619;DHT22;15039;50.830;4.730;2023-01-20T15:39:13;5.70;99.90
27619;DHT22;15039;50.830;4.730;2023-01-20T15:41:39;5.60;99.90
27619;DHT22;15039;50.830;4.730;2023-01-20T15:44:05;5.60;99.90
27619;DHT22;15039;50.830;4.730;2023-01-20T15:46:31;5.60;99.90
27619;DHT22;15039;50.830;4.730;2023-01-20T15:48:57;5.50;99.90
27619;DHT22;15039;50.830;4.730;2023-01-20T15:51:22;5.50;99.90
27619;DHT22;15039;50.830;4.730;2023-01-20T15:53:48;5.40;99.90
27619;DHT22;15039;50.830;4.730;2023-01-20T15:56:27;5.40;99.90
27619;DHT22;15039;50.830;4.730;2023-01-20T15:58:53;5.40;99.90
27619;DHT22;15039;50.830;4.730;2023-01-20T16:01:21;5.40;99.90
27619;DHT22;15039;50.830;4.730;2023-01-20T16:03:51;5.20;99.90
27619;DHT22;15039;50.830;4.730;2023-01-20T16:06:19;5.10;99.90
27619;DHT22;15039;50.830;4.730;2023-01-20T16:08:46;5.10;99.90
27619;DHT22;15039;50.830;4.730;2023-01-20T16:11:13;5.00;99.90
27619;DHT22;15039;50.830;4.730;2023-01-20T16:13:40;5.00;99.90
27619;DHT22;15039;50.830;4.730;2023-01-20T16:16:27;5.00;99.90
27619;DHT22;15039;50.830;4.730;2023-01-20T16:18:53;5.10;99.90
27619;DHT22;15039;50.830;4.730;2023-01-20T16:21:19;5.00;99.90
27619;DHT22;15039;50.830;4.730;2023-01-20T16:23:45;5.00;99.90
27619;DHT22;15039;50.830;4.730;2023-01-20T16:26:25;5.00;99.90
27619;DHT22;15039;50.830;4.730;2023-01-20T16:28:53;4.30;99.90
27619;DHT22;15039;50.830;4.730;2023-01-20T16:31:20;3.40;99.90
27619;DHT22;15039;50.830;4.730;2023-01-20T16:33:46;2.50;99.90
27619;DHT22;15039;50.830;4.730;2023-01-20T16:36:14;2.40;99.90
27619;DHT22;15039;50.830;4.730;2023-01-20T16:38:40;2.30;99.90
27619;DHT22;15039;50.830;4.730;2023-01-20T16:41:12;2.30;99.90
27619;DHT22;15039;50.830;4.730;2023-01-20T16:43:38;2.20;99.90
27619;DHT22;15039;50.830;4.730;2023-01-20T16:46:26;2.40;99.90
27619;DHT22;15039;50.830;4.730;2023-01-20T16:48:52;2.30;99.90
27619;DHT22;15039;50.830;4.730;2023-01-20T16:51:27;2.30;99.90
27619;DHT22;15039;50.830;4.730;2023-01-20T16:53:54;2.10;99.90
27619;DHT22;15039;50.830;4.730;2023-01-20T16:56:22;2.20;99.90
27619;DHT22;15039;50.830;4.730;2023-01-20T16:58:48;2.20;99.90
27619;DHT22;15039;50.830;4.730;2023-01-20T17:01:15;2.20;99.90
27619;DHT22;15039;50.830;4.730;2023-01-20T17:03:45;2.30;99.90
27619;DHT22;15039;50.830;4.730;2023-01-20T17:06:13;2.10;99.90
27619;DHT22;15039;50.830;4.730;2023-01-20T17:08:42;2.20;99.90
27619;DHT22;15039;50.830;4.730;2023-01-20T17:11:09;2.20;99.90
27619;DHT22;15039;50.830;4.730;2023-01-20T17:13:35;2.40;99.90
27619;DHT22;15039;50.830;4.730;2023-01-20T17:16:02;2.50;99.90
27619;DHT22;15039;50.830;4.730;2023-01-20T17:18:30;2.60;99.90
27619;DHT22;15039;50.830;4.730;2023-01-20T17:20:55;2.40;99.90
27619;DHT22;15039;50.830;4.730;2023-01-20T17:23:21;2.40;99.90
27619;DHT22;15039;50.830;4.730;2023-01-20T17:25:46;2.40;99.90
27619;DHT22;15039;50.830;4.730;2023-01-20T17:28:12;2.50;99.90
27619;DHT22;15039;50.830;4.730;2023-01-20T17:30:38;2.40;99.90
27619;DHT22;15039;50.830;4.730;2023-01-20T17:33:04;2.40;99.90
27619;DHT22;15039;50.830;4.730;2023-01-20T17:35:29;2.40;99.90
27619;DHT22;15039;50.830;4.730;2023-01-20T17:37:56;2.50;99.90
27619;DHT22;15039;50.830;4.730;2023-01-20T17:40:22;2.70;99.90
27619;DHT22;15039;50.830;4.730;2023-01-20T17:42:51;2.60;99.90
27619;DHT22;15039;50.830;4.730;2023-01-20T17:45:16;2.50;99.90
27619;DHT22;15039;50.830;4.730;2023-01-20T17:47:42;2.50;99.90
27619;DHT22;15039;50.830;4.730;2023-01-20T17:50:08;2.50;99.90
27619;DHT22;15039;50.830;4.730;2023-01-20T17:52:34;2.40;99.90
27619;DHT22;15039;50.830;4.730;2023-01-20T17:54:59;2.50;99.90
27619;DHT22;15039;50.830;4.730;2023-01-20T17:57:25;2.60;99.90
27619;DHT22;15039;50.830;4.730;2023-01-20T17:59:52;2.80;99.90
27619;DHT22;15039;50.830;4.730;2023-01-20T18:02:17;2.70;99.90
27619;DHT22;15039;50.830;4.730;2023-01-20T18:04:45;2.60;99.90
27619;DHT22;15039;50.830;4.730;2023-01-20T18:07:10;2.70;99.90
27619;DHT22;15039;50.830;4.730;2023-01-20T18:09:36;2.60;99.90
27619;DHT22;15039;50.830;4.730;2023-01-20T18:12:01;2.70;99.90
27619;DHT22;15039;50.830;4.730;2023-01-20T18:14:27;2.80;99.90
27619;DHT22;15039;50.830;4.730;2023-01-20T18:16:53;2.70;99.90